Time,TemperatureF,DewpointF,PressureIn,WindDirection,WindDirectionDegrees,WindSpeedMPH,WindSpeedGustMPH,Humidity,HourlyPrecipIn,Conditions,Clouds,dailyrainin,SoftwareType,DateUTC
2013-06-12 00:00:00,80.6,65.8,29.65,South,177,0.0,3.0,59,0.00,,,0.00,meteohub,2013-06-12 05:00:00,
2013-06-12 00:06:00,80.4,65.7,29.65,SW,219,0.0,3.0,59,0.00,,,0.00,meteohub,2013-06-12 05:06:00,
2013-06-12 00:11:00,80.2,65.7,29.65,SSE,152,0.0,0.0,59,0.00,,,0.00,meteohub,2013-06-12 05:11:00,
2013-06-12 00:16:00,80.2,65.1,29.65,South,169,0.0,2.0,58,0.00,,,0.00,meteohub,2013-06-12 05:16:00,
2013-06-12 00:21:00,80.2,65.1,29.65,South,185,0.0,2.0,58,0.00,,,0.00,meteohub,2013-06-12 05:21:00,
2013-06-12 00:26:00,80.4,65.1,29.65,South,180,0.0,2.0,58,0.00,,,0.00,meteohub,2013-06-12 05:26:00,
2013-06-12 00:31:00,80.2,64.9,29.65,SW,215,0.0,3.0,58,0.00,,,0.00,meteohub,2013-06-12 05:31:00,
2013-06-12 00:36:00,80.2,64.9,29.65,South,180,0.0,3.0,58,0.00,,,0.00,meteohub,2013-06-12 05:36:00,
2013-06-12 00:41:00,80.2,64.6,29.65,South,189,0.0,3.0,57,0.00,,,0.00,meteohub,2013-06-12 05:41:00,
2013-06-12 00:47:00,80.2,64.0,29.65,SSW,206,0.0,4.0,56,0.00,,,0.00,meteohub,2013-06-12 05:47:00,
2013-06-12 00:52:00,80.4,64.0,29.65,South,171,0.0,4.0,56,0.00,,,0.00,meteohub,2013-06-12 05:52:00,
2013-06-12 00:57:00,80.4,64.0,29.65,South,169,12.0,12.0,56,0.00,,,0.00,meteohub,2013-06-12 05:57:00,
2013-06-12 01:02:00,80.6,64.0,29.65,South,177,0.0,13.0,56,0.00,,,0.00,meteohub,2013-06-12 06:02:00,
2013-06-12 01:08:00,80.4,63.7,29.62,South,175,0.0,13.0,55,0.00,,,0.00,meteohub,2013-06-12 06:08:00,
2013-06-12 01:13:00,80.4,63.7,29.62,SSE,150,0.0,13.0,55,0.00,,,0.00,meteohub,2013-06-12 06:13:00,
2013-06-12 01:18:00,80.2,63.7,29.62,South,185,0.0,4.0,55,0.00,,,0.00,meteohub,2013-06-12 06:18:00,
2013-06-12 01:23:00,80.4,64.0,29.62,SSW,195,0.0,4.0,56,0.00,,,0.00,meteohub,2013-06-12 06:23:00,
2013-06-12 01:28:00,80.4,64.0,29.62,South,186,0.0,4.0,56,0.00,,,0.00,meteohub,2013-06-12 06:28:00,
2013-06-12 01:33:00,80.2,64.0,29.62,South,182,0.0,5.0,56,0.00,,,0.00,meteohub,2013-06-12 06:33:00,
2013-06-12 01:39:00,80.2,64.2,29.62,South,175,0.0,5.0,57,0.00,,,0.00,meteohub,2013-06-12 06:39:00,
2013-06-12 01:44:00,80.1,64.8,29.62,SSW,196,3.0,3.0,58,0.00,,,0.00,meteohub,2013-06-12 06:44:00,
2013-06-12 01:49:00,80.1,64.8,29.62,South,188,0.0,4.0,58,0.00,,,0.00,meteohub,2013-06-12 06:49:00,
2013-06-12 01:54:00,79.9,65.1,29.62,SSW,194,0.0,4.0,59,0.00,,,0.00,meteohub,2013-06-12 06:54:00,
2013-06-12 01:59:00,79.9,65.1,29.62,South,190,0.0,12.0,59,0.00,,,0.00,meteohub,2013-06-12 06:59:00,
2013-06-12 02:04:00,79.7,65.1,29.62,South,191,0.0,12.0,59,0.00,,,0.00,meteohub,2013-06-12 07:04:00,
2013-06-12 02:10:00,79.7,65.7,29.62,SSE,155,2.0,3.0,60,0.00,,,0.00,meteohub,2013-06-12 07:10:00,
2013-06-12 02:15:00,79.7,65.5,29.62,South,182,0.0,4.0,60,0.00,,,0.00,meteohub,2013-06-12 07:15:00,
2013-06-12 02:20:00,79.7,65.7,29.65,West,275,0.0,4.0,61,0.00,,,0.00,meteohub,2013-06-12 07:20:00,
2013-06-12 02:25:00,79.5,66.4,29.65,NNW,332,0.0,4.0,64,0.00,,,0.00,meteohub,2013-06-12 07:25:00,
2013-06-12 02:30:00,79.3,65.8,29.65,SSW,194,0.0,4.0,62,0.00,,,0.00,meteohub,2013-06-12 07:30:00,
2013-06-12 02:35:00,79.3,65.8,29.65,SW,226,0.0,5.0,61,0.00,,,0.00,meteohub,2013-06-12 07:35:00,
2013-06-12 02:40:00,79.7,66.2,29.65,WNW,303,0.0,5.0,62,0.00,,,0.00,meteohub,2013-06-12 07:40:00,
2013-06-12 02:45:00,79.5,66.4,29.65,North,357,0.0,5.0,63,0.00,,,0.00,meteohub,2013-06-12 07:45:00,
2013-06-12 02:50:00,79.3,65.8,29.68,SSW,199,2.0,3.0,62,0.00,,,0.00,meteohub,2013-06-12 07:50:00,
2013-06-12 02:56:00,79.3,66.0,29.68,NNW,336,0.0,3.0,62,0.00,,,0.00,meteohub,2013-06-12 07:56:00,
2013-06-12 03:01:00,79.2,66.2,29.68,North,2,0.0,3.0,63,0.00,,,0.00,meteohub,2013-06-12 08:01:00,
2013-06-12 03:06:00,78.8,66.4,29.68,South,187,0.0,3.0,64,0.00,,,0.00,meteohub,2013-06-12 08:06:00,
2013-06-12 03:11:00,78.6,66.2,29.68,WSW,248,0.0,2.0,63,0.00,,,0.00,meteohub,2013-06-12 08:11:00,
2013-06-12 03:16:00,78.4,65.8,29.68,WSW,249,0.0,2.0,63,0.00,,,0.00,meteohub,2013-06-12 08:16:00,
2013-06-12 03:21:00,78.4,66.2,29.68,West,266,0.0,2.0,64,0.00,,,0.00,meteohub,2013-06-12 08:21:00,
2013-06-12 03:26:00,78.3,66.0,29.68,West,267,0.0,0.0,64,0.00,,,0.00,meteohub,2013-06-12 08:26:00,
2013-06-12 03:31:00,78.1,66.4,29.68,West,266,0.0,0.0,65,0.00,,,0.00,meteohub,2013-06-12 08:31:00,
2013-06-12 03:36:00,77.9,66.6,29.71,West,268,0.0,0.0,66,0.00,,,0.00,meteohub,2013-06-12 08:36:00,
2013-06-12 03:41:00,78.1,66.0,29.71,North,353,0.0,0.0,65,0.00,,,0.00,meteohub,2013-06-12 08:41:00,
2013-06-12 03:46:00,78.1,67.6,29.71,North,353,0.0,0.0,70,0.00,,,0.00,meteohub,2013-06-12 08:46:00,
2013-06-12 03:52:00,77.2,68.7,29.71,North,357,0.0,6.0,75,0.00,,,0.00,meteohub,2013-06-12 08:52:00,
2013-06-12 03:57:00,75.7,68.7,29.71,North,8,0.0,6.0,77,0.04,,,0.04,meteohub,2013-06-12 08:57:00,
2013-06-12 04:02:00,74.7,68.7,29.71,North,8,0.0,6.0,78,0.04,,,0.04,meteohub,2013-06-12 09:02:00,
2013-06-12 04:07:00,73.9,68.9,29.68,North,8,0.0,0.0,79,0.04,,,0.04,meteohub,2013-06-12 09:07:00,
2013-06-12 04:12:00,73.4,68.9,29.68,North,8,0.0,0.0,81,0.04,,,0.04,meteohub,2013-06-12 09:12:00,
2013-06-12 04:17:00,73.2,69.3,29.68,SSE,159,0.0,0.0,84,0.04,,,0.04,meteohub,2013-06-12 09:17:00,
2013-06-12 04:22:00,72.9,69.3,29.68,SSE,168,0.0,0.0,83,0.04,,,0.04,meteohub,2013-06-12 09:22:00,
2013-06-12 04:27:00,72.9,69.4,29.68,SSE,167,0.0,0.0,84,0.04,,,0.04,meteohub,2013-06-12 09:27:00,
2013-06-12 04:32:00,72.9,69.8,29.68,SSE,166,0.0,0.0,86,0.04,,,0.04,meteohub,2013-06-12 09:32:00,
2013-06-12 04:37:00,72.9,69.4,29.68,South,169,0.0,0.0,84,0.04,,,0.04,meteohub,2013-06-12 09:37:00,
2013-06-12 04:42:00,73.0,69.4,29.68,SSE,163,0.0,0.0,85,0.04,,,0.04,meteohub,2013-06-12 09:42:00,
2013-06-12 04:47:00,72.9,69.6,29.68,SSE,163,0.0,0.0,86,0.04,,,0.04,meteohub,2013-06-12 09:47:00,
2013-06-12 04:52:00,72.7,69.4,29.68,SSE,164,0.0,0.0,86,0.00,,,0.04,meteohub,2013-06-12 09:52:00,
2013-06-12 04:57:00,72.5,69.8,29.68,SSE,166,0.0,0.0,87,0.00,,,0.04,meteohub,2013-06-12 09:57:00,
2013-06-12 05:02:00,72.5,69.6,29.68,SSE,166,0.0,0.0,86,0.00,,,0.04,meteohub,2013-06-12 10:02:00,
2013-06-12 05:07:00,72.7,69.6,29.65,SSE,167,0.0,0.0,86,0.00,,,0.04,meteohub,2013-06-12 10:07:00,
2013-06-12 05:12:00,72.9,69.4,29.65,SSE,167,0.0,0.0,85,0.00,,,0.04,meteohub,2013-06-12 10:12:00,
2013-06-12 05:17:00,72.9,69.3,29.65,SSE,167,0.0,0.0,85,0.00,,,0.04,meteohub,2013-06-12 10:17:00,
2013-06-12 05:22:00,72.9,69.4,29.65,SSE,167,0.0,0.0,86,0.00,,,0.04,meteohub,2013-06-12 10:22:00,
2013-06-12 05:27:00,72.7,69.3,29.65,SSE,167,0.0,0.0,86,0.00,,,0.04,meteohub,2013-06-12 10:27:00,
2013-06-12 05:32:00,72.7,69.3,29.65,SSE,167,0.0,0.0,86,0.00,,,0.04,meteohub,2013-06-12 10:32:00,
2013-06-12 05:37:00,72.5,69.3,29.65,SSE,167,0.0,0.0,86,0.00,,,0.04,meteohub,2013-06-12 10:37:00,
2013-06-12 05:42:00,72.3,69.3,29.65,SSE,167,0.0,0.0,86,0.00,,,0.04,meteohub,2013-06-12 10:42:00,
2013-06-12 05:47:00,72.1,69.1,29.65,SSE,167,0.0,0.0,86,0.00,,,0.04,meteohub,2013-06-12 10:47:00,
2013-06-12 05:52:00,72.1,69.1,29.65,SSE,167,0.0,0.0,86,0.00,,,0.04,meteohub,2013-06-12 10:52:00,
2013-06-12 05:57:00,72.1,69.3,29.65,SSE,167,0.0,0.0,87,0.00,,,0.04,meteohub,2013-06-12 10:57:00,
2013-06-12 06:02:00,72.1,69.3,29.65,SSE,167,0.0,0.0,87,0.00,,,0.04,meteohub,2013-06-12 11:02:00,
2013-06-12 06:07:00,72.1,68.9,29.65,SSE,167,0.0,0.0,86,0.00,,,0.04,meteohub,2013-06-12 11:07:00,
2013-06-12 06:12:00,72.0,69.1,29.65,SSE,167,0.0,0.0,87,0.00,,,0.04,meteohub,2013-06-12 11:12:00,
2013-06-12 06:17:00,72.0,69.4,29.65,SSE,167,0.0,0.0,88,0.00,,,0.04,meteohub,2013-06-12 11:17:00,
2013-06-12 06:22:00,72.0,69.4,29.65,SSE,167,0.0,0.0,88,0.00,,,0.04,meteohub,2013-06-12 11:22:00,
2013-06-12 06:27:00,72.0,69.4,29.65,SSE,167,0.0,0.0,88,0.00,,,0.04,meteohub,2013-06-12 11:27:00,
2013-06-12 06:32:00,72.1,69.6,29.65,SSE,167,0.0,0.0,88,0.00,,,0.04,meteohub,2013-06-12 11:32:00,
2013-06-12 06:37:00,72.5,69.8,29.65,South,182,0.0,0.0,88,0.00,,,0.04,meteohub,2013-06-12 11:37:00,
2013-06-12 06:42:00,72.9,69.6,29.65,South,191,0.0,0.0,87,0.00,,,0.04,meteohub,2013-06-12 11:42:00,
2013-06-12 06:47:00,73.0,69.6,29.65,South,191,0.0,0.0,87,0.00,,,0.04,meteohub,2013-06-12 11:47:00,
2013-06-12 06:52:00,73.0,69.6,29.68,South,191,0.0,0.0,87,0.00,,,0.04,meteohub,2013-06-12 11:52:00,
2013-06-12 06:57:00,73.0,69.8,29.68,South,189,0.0,0.0,87,0.00,,,0.04,meteohub,2013-06-12 11:57:00,
2013-06-12 07:02:00,73.2,69.8,29.68,South,189,0.0,0.0,87,0.00,,,0.04,meteohub,2013-06-12 12:02:00,
2013-06-12 07:07:00,73.2,69.8,29.65,South,190,0.0,0.0,87,0.00,,,0.04,meteohub,2013-06-12 12:07:00,
2013-06-12 07:12:00,73.4,70.0,29.65,South,173,0.0,0.0,87,0.00,,,0.04,meteohub,2013-06-12 12:12:00,
2013-06-12 07:17:00,73.4,69.8,29.65,South,187,0.0,2.0,86,0.00,,,0.04,meteohub,2013-06-12 12:17:00,
2013-06-12 07:22:00,73.6,69.8,29.65,South,187,0.0,2.0,86,0.00,,,0.04,meteohub,2013-06-12 12:22:00,
2013-06-12 07:27:00,73.8,70.2,29.65,South,187,0.0,2.0,87,0.00,,,0.04,meteohub,2013-06-12 12:27:00,
2013-06-12 07:32:00,73.8,70.0,29.65,South,187,0.0,0.0,86,0.00,,,0.04,meteohub,2013-06-12 12:32:00,
2013-06-12 07:37:00,75.2,70.2,29.68,South,187,0.0,0.0,86,0.00,,,0.04,meteohub,2013-06-12 12:37:00,
2013-06-12 07:42:00,76.5,70.2,29.68,South,187,0.0,0.0,86,0.00,,,0.04,meteohub,2013-06-12 12:42:00,
2013-06-12 07:47:00,77.2,70.3,29.68,South,187,0.0,0.0,86,0.00,,,0.04,meteohub,2013-06-12 12:47:00,
2013-06-12 07:52:00,77.7,70.5,29.68,South,187,0.0,0.0,86,0.00,,,0.04,meteohub,2013-06-12 12:52:00,
2013-06-12 07:57:00,77.9,70.7,29.68,South,187,0.0,0.0,86,0.00,,,0.04,meteohub,2013-06-12 12:57:00,
2013-06-12 08:02:00,78.4,70.9,29.68,South,187,0.0,0.0,86,0.00,,,0.04,meteohub,2013-06-12 13:02:00,
2013-06-12 08:07:00,79.3,71.1,29.68,South,187,0.0,0.0,86,0.00,,,0.04,meteohub,2013-06-12 13:07:00,
2013-06-12 08:12:00,79.0,70.9,29.68,South,187,0.0,0.0,85,0.00,,,0.04,meteohub,2013-06-12 13:12:00,
2013-06-12 08:17:00,78.6,70.9,29.68,South,187,0.0,0.0,85,0.00,,,0.04,meteohub,2013-06-12 13:17:00,
2013-06-12 08:22:00,77.9,71.2,29.68,South,187,0.0,0.0,86,0.00,,,0.04,meteohub,2013-06-12 13:22:00,
2013-06-12 08:27:00,77.5,71.2,29.68,South,187,0.0,0.0,86,0.00,,,0.04,meteohub,2013-06-12 13:27:00,
2013-06-12 08:32:00,77.4,71.6,29.68,South,187,0.0,0.0,87,0.00,,,0.04,meteohub,2013-06-12 13:32:00,
2013-06-12 08:37:00,77.4,72.0,29.71,South,187,0.0,0.0,88,0.00,,,0.04,meteohub,2013-06-12 13:37:00,
2013-06-12 08:42:00,77.4,72.1,29.71,South,187,0.0,0.0,88,0.00,,,0.04,meteohub,2013-06-12 13:42:00,
2013-06-12 08:47:00,77.4,72.7,29.71,South,188,0.0,0.0,89,0.00,,,0.04,meteohub,2013-06-12 13:47:00,
2013-06-12 08:52:00,77.5,73.0,29.71,NNW,341,0.0,0.0,89,0.00,,,0.04,meteohub,2013-06-12 13:52:00,
2013-06-12 08:57:00,77.5,72.5,29.71,NNW,333,0.0,0.0,88,0.00,,,0.04,meteohub,2013-06-12 13:57:00,
2013-06-12 09:02:00,77.4,72.7,29.71,NNW,328,0.0,0.0,88,0.00,,,0.04,meteohub,2013-06-12 14:02:00,
2013-06-12 09:07:00,77.4,72.5,29.71,North,353,0.0,0.0,87,0.00,,,0.04,meteohub,2013-06-12 14:07:00,
2013-06-12 09:12:00,77.5,72.1,29.71,NW,320,0.0,0.0,85,0.00,,,0.04,meteohub,2013-06-12 14:12:00,
2013-06-12 09:17:00,78.1,72.5,29.71,North,2,0.0,0.0,85,0.00,,,0.04,meteohub,2013-06-12 14:17:00,
2013-06-12 09:22:00,79.2,72.7,29.71,NNW,327,0.0,0.0,84,0.00,,,0.04,meteohub,2013-06-12 14:22:00,
2013-06-12 09:27:00,80.1,72.0,29.71,NNW,344,0.0,0.0,81,0.00,,,0.04,meteohub,2013-06-12 14:27:00,
2013-06-12 09:32:00,80.8,72.0,29.71,North,349,0.0,0.0,80,0.00,,,0.04,meteohub,2013-06-12 14:32:00,
2013-06-12 09:37:00,81.3,71.8,29.71,NNW,330,0.0,2.0,79,0.00,,,0.04,meteohub,2013-06-12 14:37:00,
2013-06-12 09:42:00,81.5,71.2,29.71,NNW,348,0.0,2.0,77,0.00,,,0.04,meteohub,2013-06-12 14:42:00,
2013-06-12 09:47:00,81.3,71.6,29.71,WNW,300,0.0,2.0,77,0.00,,,0.04,meteohub,2013-06-12 14:47:00,
2013-06-12 09:52:00,81.3,71.4,29.74,North,8,0.0,0.0,76,0.00,,,0.04,meteohub,2013-06-12 14:52:00,
2013-06-12 09:57:00,81.5,71.4,29.74,NNE,14,0.0,0.0,75,0.00,,,0.04,meteohub,2013-06-12 14:57:00,
2013-06-12 10:02:00,81.5,71.2,29.74,NNE,33,0.0,0.0,74,0.00,,,0.04,meteohub,2013-06-12 15:02:00,
2013-06-12 10:07:00,81.7,71.4,29.71,NW,319,0.0,0.0,74,0.00,,,0.04,meteohub,2013-06-12 15:07:00,
2013-06-12 10:12:00,81.5,71.4,29.71,North,357,0.0,0.0,73,0.00,,,0.04,meteohub,2013-06-12 15:12:00,
2013-06-12 10:17:00,81.5,71.6,29.71,NNE,33,0.0,0.0,73,0.00,,,0.04,meteohub,2013-06-12 15:17:00,
2013-06-12 10:22:00,82.0,71.1,29.71,North,6,0.0,0.0,71,0.00,,,0.04,meteohub,2013-06-12 15:22:00,
2013-06-12 10:27:00,82.2,71.1,29.71,North,353,0.0,5.0,71,0.00,,,0.04,meteohub,2013-06-12 15:27:00,
2013-06-12 10:32:00,82.0,71.1,29.71,NNW,345,2.0,5.0,70,0.00,,,0.04,meteohub,2013-06-12 15:32:00,
2013-06-12 10:37:00,82.4,71.2,29.74,North,353,0.0,3.0,70,0.00,,,0.04,meteohub,2013-06-12 15:37:00,
2013-06-12 10:42:00,82.8,71.2,29.74,NNW,335,0.0,3.0,69,0.00,,,0.04,meteohub,2013-06-12 15:42:00,
2013-06-12 10:47:00,83.1,71.1,29.74,North,0,0.0,3.0,68,0.00,,,0.04,meteohub,2013-06-12 15:47:00,
2013-06-12 10:52:00,83.7,71.1,29.74,North,3,0.0,2.0,68,0.00,,,0.04,meteohub,2013-06-12 15:52:00,
2013-06-12 10:57:00,84.6,71.4,29.74,North,357,0.0,2.0,68,0.00,,,0.04,meteohub,2013-06-12 15:57:00,
2013-06-12 11:02:00,84.9,72.1,29.74,North,357,0.0,2.0,68,0.00,,,0.04,meteohub,2013-06-12 16:02:00,
2013-06-12 11:07:00,85.5,72.0,29.74,North,3,0.0,0.0,67,0.00,,,0.04,meteohub,2013-06-12 16:07:00,
2013-06-12 11:12:00,86.0,72.0,29.74,NNE,32,0.0,2.0,66,0.00,,,0.04,meteohub,2013-06-12 16:12:00,
2013-06-12 11:17:00,87.1,72.5,29.74,North,353,0.0,2.0,66,0.00,,,0.04,meteohub,2013-06-12 16:17:00,
2013-06-12 11:22:00,86.7,72.7,29.74,North,4,0.0,2.0,65,0.00,,,0.04,meteohub,2013-06-12 16:22:00,
2013-06-12 11:27:00,86.0,72.9,29.74,North,353,0.0,0.0,65,0.00,,,0.04,meteohub,2013-06-12 16:27:00,
2013-06-12 11:32:00,86.0,72.9,29.74,NW,326,0.0,0.0,63,0.00,,,0.04,meteohub,2013-06-12 16:32:00,
2013-06-12 11:37:00,86.0,72.7,29.74,NNW,338,0.0,0.0,62,0.00,,,0.04,meteohub,2013-06-12 16:37:00,
2013-06-12 11:42:00,86.0,71.2,29.74,NNW,340,0.0,0.0,61,0.00,,,0.04,meteohub,2013-06-12 16:42:00,
2013-06-12 11:47:00,85.8,71.8,29.74,NNW,333,0.0,0.0,63,0.00,,,0.04,meteohub,2013-06-12 16:47:00,
2013-06-12 11:52:00,86.0,72.0,29.74,NNW,330,0.0,0.0,61,0.00,,,0.04,meteohub,2013-06-12 16:52:00,
2013-06-12 11:57:00,86.2,71.4,29.74,North,350,0.0,0.0,60,0.00,,,0.04,meteohub,2013-06-12 16:57:00,
2013-06-12 12:02:00,86.2,70.9,29.74,NNW,334,0.0,0.0,59,0.00,,,0.04,meteohub,2013-06-12 17:02:00,
2013-06-12 12:07:00,86.0,71.8,29.77,NNW,342,0.0,0.0,61,0.00,,,0.04,meteohub,2013-06-12 17:07:00,
2013-06-12 12:12:00,86.0,71.6,29.77,NW,315,0.0,0.0,59,0.00,,,0.04,meteohub,2013-06-12 17:12:00,
2013-06-12 12:17:00,86.4,72.0,29.77,NNE,12,0.0,2.0,58,0.00,,,0.04,meteohub,2013-06-12 17:17:00,
2013-06-12 12:22:00,86.5,71.2,29.77,NNW,331,0.0,6.0,56,0.00,,,0.04,meteohub,2013-06-12 17:22:00,
2013-06-12 12:27:00,86.5,71.6,29.77,NNW,341,0.0,6.0,58,0.00,,,0.04,meteohub,2013-06-12 17:27:00,
2013-06-12 12:32:00,86.7,71.6,29.77,NW,323,0.0,6.0,58,0.00,,,0.04,meteohub,2013-06-12 17:32:00,
2013-06-12 12:37:00,86.7,72.1,29.77,North,353,0.0,2.0,58,0.00,,,0.04,meteohub,2013-06-12 17:37:00,
2013-06-12 12:42:00,86.9,70.7,29.77,NW,322,4.0,9.0,54,0.00,,,0.04,meteohub,2013-06-12 17:42:00,
2013-06-12 12:47:00,86.9,69.8,29.77,NW,318,0.0,9.0,52,0.00,,,0.04,meteohub,2013-06-12 17:47:00,
2013-06-12 12:52:00,86.5,68.5,29.77,NNW,342,0.0,9.0,50,0.00,,,0.04,meteohub,2013-06-12 17:52:00,
2013-06-12 12:57:00,86.4,68.4,29.77,NNW,344,0.0,9.0,51,0.00,,,0.04,meteohub,2013-06-12 17:57:00,
2013-06-12 13:02:00,86.2,68.7,29.77,NW,305,0.0,4.0,52,0.00,,,0.04,meteohub,2013-06-12 18:02:00,
2013-06-12 13:07:00,86.0,68.5,29.77,NNW,327,0.0,4.0,52,0.00,,,0.04,meteohub,2013-06-12 18:07:00,
2013-06-12 13:12:00,86.0,69.3,29.77,North,353,0.0,6.0,53,0.00,,,0.04,meteohub,2013-06-12 18:12:00,
2013-06-12 13:17:00,86.4,69.1,29.77,North,357,0.0,6.0,52,0.00,,,0.04,meteohub,2013-06-12 18:17:00,
2013-06-12 13:22:00,86.5,67.8,29.80,NW,318,0.0,6.0,49,0.00,,,0.04,meteohub,2013-06-12 18:22:00,
2013-06-12 13:27:00,86.7,67.1,29.80,NNE,12,0.0,2.0,49,0.00,,,0.04,meteohub,2013-06-12 18:27:00,
2013-06-12 13:32:00,86.5,66.2,29.80,NNW,342,0.0,5.0,46,0.00,,,0.04,meteohub,2013-06-12 18:32:00,
2013-06-12 13:37:00,86.5,66.6,29.80,North,353,0.0,5.0,48,0.00,,,0.04,meteohub,2013-06-12 18:37:00,
2013-06-12 13:42:00,86.4,65.8,29.80,North,357,0.0,5.0,47,0.00,,,0.04,meteohub,2013-06-12 18:42:00,
2013-06-12 13:47:00,86.4,66.0,29.80,NNW,330,0.0,0.0,47,0.00,,,0.04,meteohub,2013-06-12 18:47:00,
2013-06-12 13:52:00,86.7,66.6,29.80,NNW,338,0.0,4.0,47,0.00,,,0.04,meteohub,2013-06-12 18:52:00,
2013-06-12 13:57:00,87.1,66.4,29.80,NNW,337,0.0,4.0,46,0.00,,,0.04,meteohub,2013-06-12 18:57:00,
2013-06-12 14:02:00,87.8,67.1,29.80,North,350,0.0,4.0,46,0.00,,,0.04,meteohub,2013-06-12 19:02:00,
2013-06-12 14:07:00,88.2,67.8,29.80,NNW,343,0.0,3.0,47,0.04,,,0.08,meteohub,2013-06-12 19:07:00,
2013-06-12 14:12:00,88.2,66.4,29.80,North,357,0.0,2.0,45,0.08,,,0.12,meteohub,2013-06-12 19:12:00,
2013-06-12 14:17:00,88.2,66.2,29.80,NNE,17,0.0,3.0,45,0.08,,,0.12,meteohub,2013-06-12 19:17:00,
2013-06-12 14:22:00,88.0,66.4,29.80,NW,314,0.0,3.0,45,0.08,,,0.12,meteohub,2013-06-12 19:22:00,
2013-06-12 14:27:00,88.2,65.7,29.80,NNW,335,0.0,3.0,43,0.08,,,0.12,meteohub,2013-06-12 19:27:00,
2013-06-12 14:32:00,88.3,64.4,29.80,North,357,0.0,3.0,41,0.08,,,0.12,meteohub,2013-06-12 19:32:00,
2013-06-12 14:37:00,88.5,64.6,29.80,NNW,345,0.0,4.0,41,0.08,,,0.12,meteohub,2013-06-12 19:37:00,
2013-06-12 14:42:00,88.5,64.0,29.80,North,350,0.0,9.0,40,0.08,,,0.12,meteohub,2013-06-12 19:42:00,
2013-06-12 14:47:00,88.3,63.0,29.80,North,6,0.0,9.0,39,0.08,,,0.12,meteohub,2013-06-12 19:47:00,
2013-06-12 14:52:00,88.0,64.0,29.80,NNW,343,0.0,9.0,41,0.08,,,0.12,meteohub,2013-06-12 19:52:00,
2013-06-12 14:57:00,88.0,63.5,29.80,North,357,0.0,4.0,40,0.08,,,0.12,meteohub,2013-06-12 19:57:00,
2013-06-12 15:02:00,88.3,62.6,29.80,North,0,3.0,4.0,38,0.08,,,0.12,meteohub,2013-06-12 20:02:00,
2013-06-12 15:07:00,88.2,63.0,29.80,NNW,328,0.0,8.0,39,0.04,,,0.12,meteohub,2013-06-12 20:07:00,
2013-06-12 15:13:00,88.0,62.1,29.80,NNW,332,0.0,8.0,38,0.00,,,0.12,meteohub,2013-06-12 20:13:00,
2013-06-12 15:18:00,87.8,63.5,29.80,NW,319,0.0,8.0,40,0.00,,,0.12,meteohub,2013-06-12 20:18:00,
2013-06-12 15:23:00,88.0,63.5,29.80,North,0,0.0,6.0,40,0.00,,,0.12,meteohub,2013-06-12 20:23:00,
2013-06-12 15:28:00,88.0,62.2,29.80,NNW,348,0.0,6.0,38,0.00,,,0.12,meteohub,2013-06-12 20:28:00,
2013-06-12 15:33:00,88.0,62.1,29.83,NNE,14,0.0,6.0,38,0.00,,,0.12,meteohub,2013-06-12 20:33:00,
2013-06-12 15:38:00,88.5,62.8,29.83,NNW,335,0.0,3.0,39,0.00,,,0.12,meteohub,2013-06-12 20:38:00,
2013-06-12 15:43:00,87.8,61.7,29.83,NNE,16,3.0,12.0,38,0.00,,,0.12,meteohub,2013-06-12 20:43:00,
2013-06-12 15:48:00,87.6,62.4,29.83,NNW,334,0.0,12.0,39,0.00,,,0.12,meteohub,2013-06-12 20:48:00,
2013-06-12 15:53:00,87.1,62.6,29.83,NNW,334,0.0,12.0,40,0.00,,,0.12,meteohub,2013-06-12 20:53:00,
2013-06-12 15:58:00,86.7,62.8,29.83,North,2,0.0,3.0,40,0.00,,,0.12,meteohub,2013-06-12 20:58:00,
2013-06-12 16:03:00,86.7,62.8,29.83,NW,326,0.0,11.0,40,0.00,,,0.12,meteohub,2013-06-12 21:03:00,
2013-06-12 16:08:00,86.7,62.8,29.83,NNE,21,0.0,11.0,40,0.00,,,0.12,meteohub,2013-06-12 21:08:00,
2013-06-12 16:13:00,86.5,62.8,29.83,NW,315,0.0,11.0,40,0.00,,,0.12,meteohub,2013-06-12 21:13:00,
2013-06-12 16:19:00,86.2,62.8,29.83,WNW,296,0.0,3.0,41,0.00,,,0.12,meteohub,2013-06-12 21:19:00,
2013-06-12 16:24:00,86.0,61.3,29.83,NW,323,0.0,3.0,39,0.00,,,0.12,meteohub,2013-06-12 21:24:00,
2013-06-12 16:29:00,85.6,61.5,29.83,North,7,0.0,3.0,40,0.00,,,0.12,meteohub,2013-06-12 21:29:00,
2013-06-12 16:34:00,85.1,62.1,29.83,NNW,337,0.0,3.0,41,0.00,,,0.12,meteohub,2013-06-12 21:34:00,
2013-06-12 16:39:00,85.1,61.5,29.83,North,2,0.0,3.0,40,0.00,,,0.12,meteohub,2013-06-12 21:39:00,
2013-06-12 16:44:00,85.1,61.9,29.83,NNW,341,0.0,3.0,41,0.00,,,0.12,meteohub,2013-06-12 21:44:00,
2013-06-12 16:49:00,84.9,61.7,29.83,NNW,331,0.0,4.0,41,0.00,,,0.12,meteohub,2013-06-12 21:49:00,
2013-06-12 16:54:00,84.7,60.1,29.83,North,3,0.0,4.0,39,0.00,,,0.12,meteohub,2013-06-12 21:54:00,
2013-06-12 16:59:00,84.7,60.8,29.83,NNE,17,3.0,11.0,40,0.00,,,0.12,meteohub,2013-06-12 21:59:00,
2013-06-12 17:04:00,84.6,61.2,29.86,North,353,0.0,12.0,41,0.00,,,0.12,meteohub,2013-06-12 22:04:00,
2013-06-12 17:09:00,84.6,61.0,29.86,NNW,327,8.0,12.0,41,0.00,,,0.12,meteohub,2013-06-12 22:09:00,
2013-06-12 17:14:00,84.4,61.5,29.86,NW,316,0.0,12.0,42,0.00,,,0.12,meteohub,2013-06-12 22:14:00,
2013-06-12 17:19:00,84.0,61.2,29.86,WNW,301,0.0,10.0,42,0.00,,,0.12,meteohub,2013-06-12 22:19:00,
2013-06-12 17:25:00,83.7,60.3,29.86,NNW,339,0.0,10.0,41,0.00,,,0.12,meteohub,2013-06-12 22:25:00,
2013-06-12 17:30:00,83.7,60.3,29.86,NNW,327,3.0,8.0,41,0.00,,,0.12,meteohub,2013-06-12 22:30:00,
2013-06-12 17:35:00,83.5,59.2,29.86,NNW,340,10.0,10.0,40,0.00,,,0.12,meteohub,2013-06-12 22:35:00,
2013-06-12 17:40:00,83.3,59.0,29.86,NW,326,0.0,11.0,40,0.00,,,0.12,meteohub,2013-06-12 22:40:00,
2013-06-12 17:45:00,83.1,59.4,29.86,North,353,0.0,11.0,41,0.00,,,0.12,meteohub,2013-06-12 22:45:00,
2013-06-12 17:50:00,82.9,59.2,29.86,NW,319,2.0,10.0,41,0.00,,,0.12,meteohub,2013-06-12 22:50:00,
2013-06-12 17:55:00,82.9,59.0,29.86,NNW,339,0.0,5.0,41,0.00,,,0.12,meteohub,2013-06-12 22:55:00,
2013-06-12 18:00:00,82.8,59.5,29.86,NW,314,0.0,5.0,42,0.00,,,0.12,meteohub,2013-06-12 23:00:00,
2013-06-12 18:05:00,82.6,58.6,29.86,NNW,342,4.0,4.0,41,0.00,,,0.12,meteohub,2013-06-12 23:05:00,
2013-06-12 18:10:00,82.4,59.2,29.86,NW,325,0.0,4.0,42,0.00,,,0.12,meteohub,2013-06-12 23:10:00,
2013-06-12 18:15:00,82.0,59.9,29.86,NNW,330,0.0,4.0,44,0.00,,,0.12,meteohub,2013-06-12 23:15:00,
2013-06-12 18:20:00,81.9,59.7,29.86,NW,317,0.0,4.0,44,0.00,,,0.12,meteohub,2013-06-12 23:20:00,
2013-06-12 18:26:00,81.7,59.0,29.86,NW,320,3.0,4.0,43,0.00,,,0.12,meteohub,2013-06-12 23:26:00,
2013-06-12 18:31:00,81.5,59.4,29.86,NNW,333,2.0,8.0,44,0.00,,,0.12,meteohub,2013-06-12 23:31:00,
2013-06-12 18:36:00,81.3,59.5,29.86,NNW,341,0.0,11.0,45,0.00,,,0.12,meteohub,2013-06-12 23:36:00,
2013-06-12 18:41:00,80.8,60.3,29.86,WNW,299,0.0,11.0,47,0.00,,,0.12,meteohub,2013-06-12 23:41:00,
2013-06-12 18:46:00,80.4,59.5,29.86,North,4,2.0,11.0,46,0.00,,,0.12,meteohub,2013-06-12 23:46:00,
2013-06-12 18:51:00,80.1,59.2,29.86,NNW,338,0.0,8.0,46,0.00,,,0.12,meteohub,2013-06-12 23:51:00,
2013-06-12 18:56:00,79.7,58.6,29.86,NNW,345,0.0,7.0,46,0.00,,,0.12,meteohub,2013-06-12 23:56:00,
2013-06-12 19:01:00,79.2,59.7,29.86,NNW,332,0.0,5.0,48,0.00,,,0.12,meteohub,2013-06-13 00:01:00,
2013-06-12 19:06:00,79.0,58.3,29.89,NNW,343,0.0,6.0,46,0.00,,,0.12,meteohub,2013-06-13 00:06:00,
2013-06-12 19:11:00,78.4,59.2,29.89,NNW,341,0.0,7.0,48,0.00,,,0.12,meteohub,2013-06-13 00:11:00,
2013-06-12 19:16:00,78.3,60.1,29.89,NNW,327,2.0,7.0,50,0.00,,,0.12,meteohub,2013-06-13 00:16:00,
2013-06-12 19:21:00,77.9,58.5,29.89,NNW,343,12.0,12.0,48,0.00,,,0.12,meteohub,2013-06-13 00:21:00,
2013-06-12 19:26:00,77.5,58.6,29.89,NW,305,0.0,12.0,49,0.00,,,0.12,meteohub,2013-06-13 00:26:00,
2013-06-12 19:32:00,77.2,57.7,29.89,North,350,0.0,13.0,48,0.00,,,0.12,meteohub,2013-06-13 00:32:00,
2013-06-12 19:37:00,77.0,59.0,29.92,North,353,0.0,13.0,50,0.00,,,0.12,meteohub,2013-06-13 00:37:00,
2013-06-12 19:42:00,76.6,57.7,29.92,NW,318,0.0,4.0,49,0.00,,,0.12,meteohub,2013-06-13 00:42:00,
2013-06-12 19:47:00,76.1,57.6,29.92,NW,313,0.0,4.0,49,0.00,,,0.12,meteohub,2013-06-13 00:47:00,
2013-06-12 19:52:00,75.7,56.5,29.92,NNW,331,0.0,3.0,48,0.00,,,0.12,meteohub,2013-06-13 00:52:00,
2013-06-12 19:57:00,75.4,56.8,29.92,NW,312,11.0,11.0,49,0.00,,,0.12,meteohub,2013-06-13 00:57:00,
2013-06-12 20:02:00,75.2,57.7,29.92,NNW,331,2.0,11.0,51,0.00,,,0.12,meteohub,2013-06-13 01:02:00,
2013-06-12 20:07:00,74.7,57.4,29.92,NNW,344,2.0,11.0,51,0.00,,,0.12,meteohub,2013-06-13 01:07:00,
2013-06-12 20:12:00,74.3,55.8,29.92,North,357,0.0,11.0,49,0.00,,,0.12,meteohub,2013-06-13 01:12:00,
2013-06-12 20:17:00,73.9,56.1,29.92,NW,306,0.0,13.0,50,0.00,,,0.12,meteohub,2013-06-13 01:17:00,
2013-06-12 20:22:00,73.6,55.8,29.92,North,0,0.0,13.0,50,0.00,,,0.12,meteohub,2013-06-13 01:22:00,
2013-06-12 20:27:00,73.4,56.7,29.92,NE,44,3.0,3.0,52,0.00,,,0.12,meteohub,2013-06-13 01:27:00,
2013-06-12 20:32:00,73.4,55.8,29.92,North,0,0.0,3.0,51,0.00,,,0.12,meteohub,2013-06-13 01:32:00,
2013-06-12 20:37:00,73.0,56.1,29.95,North,357,0.0,3.0,52,0.00,,,0.12,meteohub,2013-06-13 01:37:00,
2013-06-12 20:42:00,72.5,56.5,29.95,NE,51,3.0,3.0,53,0.00,,,0.12,meteohub,2013-06-13 01:42:00,
2013-06-12 20:47:00,72.3,54.9,29.95,NE,40,3.0,4.0,51,0.00,,,0.12,meteohub,2013-06-13 01:47:00,
2013-06-12 20:52:00,72.0,54.5,29.95,NNW,343,2.0,4.0,51,0.00,,,0.12,meteohub,2013-06-13 01:52:00,
2013-06-12 20:57:00,71.8,54.9,29.95,North,353,0.0,6.0,52,0.00,,,0.12,meteohub,2013-06-13 01:57:00,
2013-06-12 21:02:00,71.4,54.7,29.95,NNW,343,0.0,6.0,52,0.00,,,0.12,meteohub,2013-06-13 02:02:00,
2013-06-12 21:07:00,71.2,55.6,29.95,North,353,0.0,3.0,54,0.00,,,0.12,meteohub,2013-06-13 02:07:00,
2013-06-12 21:12:00,71.1,55.2,29.95,NNW,338,0.0,3.0,54,0.00,,,0.12,meteohub,2013-06-13 02:12:00,
2013-06-12 21:17:00,70.7,55.4,29.95,NNW,344,0.0,3.0,55,0.00,,,0.12,meteohub,2013-06-13 02:17:00,
2013-06-12 21:22:00,70.3,55.8,29.98,North,11,0.0,4.0,56,0.00,,,0.12,meteohub,2013-06-13 02:22:00,
2013-06-12 21:27:00,70.0,56.1,29.98,North,9,0.0,4.0,57,0.00,,,0.12,meteohub,2013-06-13 02:27:00,
2013-06-12 21:32:00,69.8,56.1,29.98,NW,320,0.0,4.0,58,0.00,,,0.12,meteohub,2013-06-13 02:32:00,
2013-06-12 21:37:00,69.4,56.5,29.98,NE,37,0.0,3.0,59,0.00,,,0.12,meteohub,2013-06-13 02:37:00,
2013-06-12 21:42:00,69.3,56.3,29.98,North,0,0.0,3.0,59,0.00,,,0.12,meteohub,2013-06-13 02:42:00,
2013-06-12 21:47:00,69.1,56.1,29.98,North,349,0.0,3.0,59,0.00,,,0.12,meteohub,2013-06-13 02:47:00,
2013-06-12 21:52:00,68.9,56.5,29.98,NNE,27,0.0,3.0,60,0.00,,,0.12,meteohub,2013-06-13 02:52:00,
2013-06-12 21:57:00,68.5,56.7,29.98,NNW,343,0.0,3.0,61,0.00,,,0.12,meteohub,2013-06-13 02:57:00,
2013-06-12 22:02:00,68.4,56.5,29.98,NE,44,0.0,2.0,61,0.00,,,0.12,meteohub,2013-06-13 03:02:00,
2013-06-12 22:07:00,68.2,56.7,29.98,NNE,24,0.0,3.0,62,0.00,,,0.12,meteohub,2013-06-13 03:07:00,
2013-06-12 22:12:00,68.0,57.0,29.98,North,11,0.0,3.0,63,0.00,,,0.12,meteohub,2013-06-13 03:12:00,
2013-06-12 22:17:00,67.8,56.8,29.98,North,0,0.0,3.0,63,0.00,,,0.12,meteohub,2013-06-13 03:17:00,
2013-06-12 22:22:00,67.6,56.7,30.01,North,357,0.0,3.0,63,0.00,,,0.12,meteohub,2013-06-13 03:22:00,
2013-06-12 22:27:00,67.5,57.4,30.01,North,3,0.0,3.0,65,0.00,,,0.12,meteohub,2013-06-13 03:27:00,
2013-06-12 22:32:00,67.3,57.2,30.01,NNE,19,0.0,0.0,65,0.00,,,0.12,meteohub,2013-06-13 03:32:00,
2013-06-12 22:37:00,67.1,56.7,30.01,NNE,15,0.0,3.0,64,0.00,,,0.12,meteohub,2013-06-13 03:37:00,
2013-06-12 22:42:00,66.9,56.5,30.01,North,2,0.0,3.0,64,0.00,,,0.12,meteohub,2013-06-13 03:42:00,
2013-06-12 22:47:00,66.9,56.7,30.01,North,357,0.0,3.0,65,0.00,,,0.12,meteohub,2013-06-13 03:47:00,
2013-06-12 22:52:00,66.7,56.7,30.01,North,0,0.0,3.0,65,0.00,,,0.12,meteohub,2013-06-13 03:52:00,
2013-06-12 22:57:00,66.6,56.8,30.01,NNE,18,0.0,3.0,66,0.00,,,0.12,meteohub,2013-06-13 03:57:00,
2013-06-12 23:01:00,66.4,56.7,30.01,NE,54,0.0,2.0,66,0.00,,,0.12,meteohub,2013-06-13 04:01:00,
2013-06-12 23:02:00,66.4,57.2,30.01,North,353,0.0,2.0,67,0.00,,,0.12,meteohub,2013-06-13 04:02:00,
2013-06-12 23:06:00,66.2,57.0,30.01,North,10,0.0,2.0,67,0.00,,,0.12,meteohub,2013-06-13 04:06:00,
2013-06-12 23:11:00,66.0,57.4,30.01,North,4,0.0,2.0,68,0.00,,,0.12,meteohub,2013-06-13 04:11:00,
2013-06-12 23:16:00,66.0,56.8,30.01,NNW,345,0.0,2.0,67,0.00,,,0.12,meteohub,2013-06-13 04:16:00,
2013-06-12 23:21:00,65.8,56.7,30.01,NNE,29,0.0,3.0,67,0.00,,,0.12,meteohub,2013-06-13 04:21:00,
2013-06-12 23:26:00,65.8,57.0,30.01,North,357,0.0,3.0,68,0.00,,,0.12,meteohub,2013-06-13 04:26:00,
2013-06-12 23:31:00,66.0,57.2,30.01,North,353,0.0,3.0,69,0.00,,,0.12,meteohub,2013-06-13 04:31:00,
2013-06-12 23:36:00,66.2,57.2,30.04,North,10,0.0,0.0,69,0.00,,,0.12,meteohub,2013-06-13 04:36:00,
2013-06-12 23:41:00,65.8,56.7,30.04,North,10,0.0,0.0,68,0.00,,,0.12,meteohub,2013-06-13 04:41:00,
2013-06-12 23:46:00,65.7,56.5,30.04,North,0,0.0,0.0,68,0.00,,,0.12,meteohub,2013-06-13 04:46:00,
2013-06-12 23:51:00,65.3,56.5,30.04,NNE,22,0.0,0.0,68,0.00,,,0.12,meteohub,2013-06-13 04:51:00,
2013-06-12 23:56:00,64.9,55.9,30.04,NW,317,0.0,0.0,67,0.00,,,0.12,meteohub,2013-06-13 04:56:00,